Time;durP1;ratioP1;P1;durP2;ratioP2;P2;SDS_P1;SDS_P2;PMS_P1;PMS_P2;Temp;Humidity;BMP_temperature;BMP_pressure;BME280_temperature;BME280_humidity;BME280_pressure;Samples;Min_cycle;Max_cycle;Signal;HPM_P1;HPM_P2
2022/05/21 00:02:23;;;;;;;1.17;1.08;;;20.90;58.00;;;;;;5093437;28;20568;-71
2022/05/21 00:04:49;;;;;;;1.00;0.90;;;20.90;57.90;;;;;;5092262;28;20166;-71
2022/05/21 00:07:14;;;;;;;0.98;0.88;;;20.90;58.00;;;;;;5093044;28;20568;-69
2022/05/21 00:09:40;;;;;;;1.95;0.98;;;20.80;57.90;;;;;;5092947;28;20543;-69
2022/05/21 00:12:06;;;;;;;0.82;0.82;;;20.90;58.00;;;;;;5092380;28;20188;-69
2022/05/21 00:14:33;;;;;;;2.75;1.10;;;20.90;58.00;;;;;;5091929;28;20660;-69
2022/05/21 00:16:59;;;;;;;0.90;0.90;;;20.90;58.00;;;;;;5092852;28;20643;-69
2022/05/21 00:19:24;;;;;;;0.95;0.93;;;20.90;58.00;;;;;;5092552;28;20169;-70
2022/05/21 00:21:50;;;;;;;1.15;1.00;;;20.80;57.90;;;;;;5092693;28;20210;-70
2022/05/21 00:24:15;;;;;;;1.55;1.00;;;20.80;57.90;;;;;;5092938;28;20251;-70
2022/05/21 00:26:41;;;;;;;1.10;1.10;;;20.80;57.90;;;;;;5091945;28;20328;-70
2022/05/21 00:29:06;;;;;;;1.13;1.02;;;20.80;57.90;;;;;;5092811;28;20177;-71
2022/05/21 00:31:32;;;;;;;1.10;1.00;;;20.80;57.90;;;;;;5093057;28;20277;-70
2022/05/21 00:33:57;;;;;;;1.40;0.93;;;20.80;57.90;;;;;;5092103;28;20169;-71
2022/05/21 00:36:23;;;;;;;1.20;1.00;;;20.80;57.90;;;;;;5093100;28;20166;-71
2022/05/21 00:38:48;;;;;;;1.10;0.95;;;20.80;57.90;;;;;;5091824;28;20177;-71
2022/05/21 00:41:15;;;;;;;2.15;1.40;;;20.80;57.90;;;;;;5093035;28;20177;-70
2022/05/21 00:43:55;;;;;;;1.73;0.95;;;20.80;57.90;;;;;;5092418;28;20684;-70
2022/05/21 00:46:21;;;;;;;0.90;0.90;;;20.80;57.90;;;;;;5092094;28;20538;-70
2022/05/21 00:49:13;;;;;;;1.10;1.00;;;20.80;57.90;;;;;;5092456;28;20202;-69
2022/05/21 00:52:00;;;;;;;0.75;0.70;;;20.80;57.90;;;;;;5094445;28;20177;-69
2022/05/21 00:54:36;;;;;;;2.15;0.95;;;20.80;57.90;;;;;;5095194;28;20174;-70
2022/05/21 00:57:07;;;;;;;1.10;1.00;;;20.70;57.80;;;;;;5096625;28;20563;-70
2022/05/21 00:59:47;;;;;;;1.08;0.90;;;20.80;57.90;;;;;;5095515;28;20182;-71
2022/05/21 01:02:13;;;;;;;1.38;1.05;;;20.80;57.90;;;;;;5095047;28;20688;-71
2022/05/21 01:04:38;;;;;;;1.20;1.10;;;20.80;57.90;;;;;;5096526;28;20201;-71
2022/05/21 01:07:05;;;;;;;2.05;1.23;;;20.80;57.90;;;;;;5094473;28;20611;-69
2022/05/21 01:09:30;;;;;;;2.10;1.20;;;20.70;57.80;;;;;;5096734;28;20257;-69
2022/05/21 01:11:56;;;;;;;2.03;1.08;;;20.70;57.80;;;;;;5096322;28;20256;-69
2022/05/21 01:14:21;;;;;;;1.33;1.23;;;20.70;57.80;;;;;;5094456;28;20227;-69
2022/05/21 01:16:48;;;;;;;1.17;0.98;;;20.70;57.80;;;;;;5096278;28;20560;-70
2022/05/21 01:19:13;;;;;;;1.23;1.05;;;20.70;57.80;;;;;;5096423;28;20205;-69
2022/05/21 01:21:39;;;;;;;1.17;1.00;;;20.70;57.70;;;;;;5095217;28;20197;-69
2022/05/21 01:24:05;;;;;;;1.30;1.00;;;20.70;57.80;;;;;;5096349;28;20210;-69
2022/05/21 01:26:31;;;;;;;1.40;1.00;;;20.70;57.80;;;;;;5096125;28;20625;-69
2022/05/21 01:28:56;;;;;;;2.13;1.38;;;20.70;57.80;;;;;;5093878;28;20179;-70
2022/05/21 01:31:22;;;;;;;1.17;1.00;;;20.70;57.80;;;;;;5096306;28;20170;-70
2022/05/21 01:33:47;;;;;;;2.22;1.40;;;20.70;57.70;;;;;;5095688;28;20186;-71
2022/05/21 01:36:14;;;;;;;1.40;1.30;;;20.70;57.80;;;;;;5095158;28;20577;-70
2022/05/21 01:38:39;;;;;;;2.47;1.27;;;20.60;57.70;;;;;;5095679;28;20174;-71
2022/05/21 01:41:05;;;;;;;1.40;1.17;;;20.70;57.70;;;;;;5095886;28;20273;-70
2022/05/21 01:46:16;;;;;;;1.70;1.20;;;20.70;57.70;;;;;;5095858;28;20238;-70
2022/05/21 01:48:41;;;;;;;1.25;1.15;;;20.70;57.80;;;;;;5095600;28;20188;-69
2022/05/21 01:51:07;;;;;;;1.52;1.30;;;20.70;57.70;;;;;;5095216;28;20536;-70
2022/05/21 01:53:34;;;;;;;1.02;0.98;;;20.60;57.70;;;;;;5095758;28;20193;-69
2022/05/21 01:56:00;;;;;;;2.22;1.30;;;20.60;57.60;;;;;;5094197;28;20196;-70
2022/05/21 01:58:26;;;;;;;1.20;1.10;;;20.60;57.60;;;;;;5094944;28;20189;-70
2022/05/21 02:00:51;;;;;;;0.93;0.90;;;20.60;57.60;;;;;;5095417;28;20261;-71
2022/05/21 02:03:17;;;;;;;1.42;1.27;;;20.60;58.30;;;;;;5093501;28;20637;-72
2022/05/21 02:05:45;;;;;;;1.90;1.20;;;20.60;57.60;;;;;;5095210;28;20173;-71
2022/05/21 02:08:12;;;;;;;1.30;1.20;;;20.60;57.60;;;;;;5095426;28;20225;-69
2022/05/21 02:10:38;;;;;;;1.75;0.80;;;20.60;57.60;;;;;;5094200;28;20651;-69
2022/05/21 02:13:04;;;;;;;1.58;1.20;;;20.60;57.60;;;;;;5094343;28;20182;-69
2022/05/21 02:15:30;;;;;;;1.45;1.00;;;20.60;57.70;;;;;;5095536;28;20169;-69
2022/05/21 02:17:55;;;;;;;1.25;1.15;;;20.60;57.60;;;;;;5094349;28;20180;-69
2022/05/21 02:20:21;;;;;;;1.90;1.10;;;20.60;57.60;;;;;;5095257;28;20166;-69
2022/05/21 02:22:46;;;;;;;1.10;1.00;;;20.60;57.60;;;;;;5094139;28;20363;-70
2022/05/21 02:25:14;;;;;;;1.58;1.30;;;20.60;57.60;;;;;;5093365;28;20233;-69
2022/05/21 02:27:40;;;;;;;1.10;1.00;;;20.60;57.60;;;;;;5094051;28;20205;-69
2022/05/21 02:30:06;;;;;;;2.72;1.20;;;20.60;57.60;;;;;;5094000;28;20617;-69
2022/05/21 02:32:31;;;;;;;1.08;0.98;;;20.60;57.60;;;;;;5093303;28;20239;-70
2022/05/21 02:34:57;;;;;;;1.33;1.20;;;20.60;57.60;;;;;;5093958;28;20184;-70
2022/05/21 02:40:07;;;;;;;1.50;1.08;;;20.60;57.60;;;;;;5093267;28;20176;-71
2022/05/21 02:42:45;;;;;;;1.20;1.10;;;20.50;57.60;;;;;;5093915;28;20213;-70
2022/05/21 02:45:13;;;;;;;1.20;1.10;;;20.60;57.60;;;;;;5093944;28;20240;-69
2022/05/21 02:47:38;;;;;;;1.15;1.05;;;20.60;57.60;;;;;;5092878;28;20170;-70
2022/05/21 02:50:05;;;;;;;1.70;1.20;;;20.60;57.60;;;;;;5093927;28;20176;-69
2022/05/21 02:52:30;;;;;;;1.58;1.13;;;20.50;57.60;;;;;;5092762;28;20568;-69
2022/05/21 02:54:57;;;;;;;1.67;1.40;;;20.60;57.60;;;;;;5093571;28;20174;-70
2022/05/21 02:57:22;;;;;;;1.33;1.05;;;20.50;57.60;;;;;;5093571;28;20185;-71
2022/05/21 02:59:50;;;;;;;2.08;1.20;;;20.60;57.60;;;;;;5092592;28;20174;-72
2022/05/21 03:02:19;;;;;;;1.52;1.27;;;20.50;57.50;;;;;;5093473;28;20215;-72
2022/05/21 03:04:44;;;;;;;1.67;0.95;;;20.50;57.60;;;;;;5093026;28;20185;-71
2022/05/21 03:07:10;;;;;;;2.05;1.00;;;20.50;57.60;;;;;;5092798;28;20170;-69
2022/05/21 03:12:20;;;;;;;1.60;1.15;;;20.50;57.60;;;;;;5093383;28;20184;-69
2022/05/21 03:14:45;;;;;;;1.33;1.23;;;20.50;57.60;;;;;;5092107;28;20189;-69
2022/05/21 03:17:11;;;;;;;1.02;1.02;;;20.50;57.60;;;;;;5093099;28;20269;-69
2022/05/21 03:19:37;;;;;;;1.25;1.00;;;20.50;57.50;;;;;;5093062;28;20178;-69
2022/05/21 03:22:03;;;;;;;1.13;0.98;;;20.50;57.60;;;;;;5092309;28;20694;-69
2022/05/21 03:24:28;;;;;;;1.65;1.23;;;20.50;57.60;;;;;;5093051;28;20636;-69
2022/05/21 03:26:54;;;;;;;1.85;1.10;;;20.50;57.60;;;;;;5092958;28;20204;-69
2022/05/21 03:29:20;;;;;;;0.73;0.73;;;20.50;57.60;;;;;;5092192;28;20268;-70
2022/05/21 03:31:46;;;;;;;1.92;1.20;;;20.50;57.60;;;;;;5092738;28;20260;-70
2022/05/21 03:34:11;;;;;;;1.73;1.00;;;20.50;57.60;;;;;;5093125;28;20174;-70
2022/05/21 03:36:37;;;;;;;1.33;1.25;;;20.50;57.60;;;;;;5091834;28;20169;-70
2022/05/21 03:39:03;;;;;;;1.23;1.10;;;20.50;57.60;;;;;;5092903;28;20170;-70
2022/05/21 03:41:29;;;;;;;1.10;1.00;;;20.50;57.60;;;;;;5092902;28;20185;-70
2022/05/21 03:43:55;;;;;;;1.15;0.93;;;20.50;57.50;;;;;;5091857;28;20330;-69
2022/05/21 03:46:21;;;;;;;0.90;0.90;;;20.40;57.60;;;;;;5092840;28;20201;-69
2022/05/21 03:48:46;;;;;;;1.42;1.33;;;20.50;57.60;;;;;;5090571;28;20201;-70
2022/05/21 03:51:12;;;;;;;1.38;0.90;;;20.50;57.60;;;;;;5092742;28;20629;-69
2022/05/21 03:53:37;;;;;;;1.65;1.27;;;20.50;57.60;;;;;;5092318;28;20166;-69
2022/05/21 03:56:03;;;;;;;1.98;1.17;;;20.40;57.50;;;;;;5092046;28;20226;-70
2022/05/21 03:58:29;;;;;;;1.17;1.08;;;20.50;57.60;;;;;;5092491;28;20628;-70
2022/05/21 04:00:54;;;;;;;1.25;1.05;;;20.40;57.50;;;;;;5092195;28;20188;-71
2022/05/21 04:03:20;;;;;;;2.25;1.13;;;20.50;57.60;;;;;;5091917;28;20210;-71
2022/05/21 04:05:45;;;;;;;1.05;1.00;;;20.50;57.60;;;;;;5092298;28;20196;-71
2022/05/21 04:08:11;;;;;;;1.60;1.20;;;20.50;57.60;;;;;;5092367;28;20310;-70
2022/05/21 04:10:37;;;;;;;1.67;1.20;;;20.50;57.50;;;;;;5091535;28;20220;-69
2022/05/21 04:13:03;;;;;;;2.50;1.17;;;20.40;57.50;;;;;;5092341;28;20541;-70
2022/05/21 04:15:28;;;;;;;1.42;1.20;;;20.40;57.50;;;;;;5092427;28;20189;-69
2022/05/21 04:17:54;;;;;;;0.98;0.93;;;20.40;57.50;;;;;;5091216;28;20234;-69
2022/05/21 04:20:21;;;;;;;1.33;1.23;;;20.40;57.50;;;;;;5092425;28;20211;-69
2022/05/21 04:22:47;;;;;;;1.42;1.23;;;20.40;57.50;;;;;;5091772;28;20326;-69
2022/05/21 04:25:12;;;;;;;1.38;1.27;;;20.50;57.60;;;;;;5090765;28;20193;-69
2022/05/21 04:27:39;;;;;;;1.55;1.35;;;20.40;57.50;;;;;;5091810;28;20206;-69
2022/05/21 04:30:06;;;;;;;1.45;1.23;;;20.40;57.50;;;;;;5091972;28;20173;-70
2022/05/21 04:32:31;;;;;;;2.15;1.10;;;20.40;57.50;;;;;;5091460;28;20182;-70
2022/05/21 04:34:57;;;;;;;1.13;0.90;;;20.40;57.60;;;;;;5091740;28;20173;-70
2022/05/21 04:37:22;;;;;;;1.20;1.10;;;20.40;57.50;;;;;;5091958;28;20192;-70
2022/05/21 04:39:48;;;;;;;1.00;1.00;;;20.40;57.60;;;;;;5091105;28;20607;-70
2022/05/21 04:42:13;;;;;;;1.83;1.42;;;20.40;57.60;;;;;;5091824;28;20209;-70
2022/05/21 04:44:39;;;;;;;1.35;1.17;;;20.40;57.60;;;;;;5091625;28;20204;-70
2022/05/21 04:47:04;;;;;;;1.10;1.10;;;20.40;57.60;;;;;;5091148;28;20177;-69
2022/05/21 04:49:30;;;;;;;1.45;1.17;;;20.40;57.60;;;;;;5092122;28;20170;-69
2022/05/21 04:51:56;;;;;;;2.58;1.50;;;20.40;57.50;;;;;;5091069;28;20577;-69
2022/05/21 04:54:21;;;;;;;1.30;1.15;;;20.40;57.50;;;;;;5091814;28;20266;-70
2022/05/21 04:56:47;;;;;;;1.65;1.50;;;20.40;57.60;;;;;;5091549;28;20166;-70
2022/05/21 04:59:13;;;;;;;2.05;1.20;;;20.40;57.50;;;;;;5091254;28;20177;-71
2022/05/21 05:01:39;;;;;;;2.13;1.40;;;20.40;57.60;;;;;;5091309;28;20170;-71
2022/05/21 05:04:05;;;;;;;1.27;1.10;;;20.40;57.60;;;;;;5091984;28;20227;-71
2022/05/21 05:06:30;;;;;;;2.65;1.10;;;20.40;57.60;;;;;;5091265;28;20207;-71
2022/05/21 05:08:56;;;;;;;1.40;1.30;;;20.40;57.50;;;;;;5091386;28;20294;-69
2022/05/21 05:11:21;;;;;;;1.60;1.48;;;20.40;57.50;;;;;;5091787;28;20644;-69
2022/05/21 05:13:47;;;;;;;1.23;1.13;;;20.40;57.50;;;;;;5090740;28;20182;-69
2022/05/21 05:16:12;;;;;;;2.08;1.35;;;20.40;57.50;;;;;;5091727;28;20182;-69
2022/05/21 05:18:38;;;;;;;2.35;1.42;;;20.40;57.50;;;;;;5091570;28;20174;-70
2022/05/21 05:21:03;;;;;;;1.30;1.20;;;20.40;57.40;;;;;;5091122;28;20170;-69
2022/05/21 05:23:29;;;;;;;1.52;1.23;;;20.40;57.50;;;;;;5091641;28;20267;-69
2022/05/21 05:25:54;;;;;;;1.98;1.25;;;20.40;57.50;;;;;;5091388;28;20174;-70
2022/05/21 05:28:21;;;;;;;2.75;1.40;;;20.40;57.50;;;;;;5090946;28;20596;-70
2022/05/21 05:30:47;;;;;;;1.60;1.13;;;20.40;57.50;;;;;;5091272;28;20174;-69
2022/05/21 05:33:13;;;;;;;2.30;1.30;;;20.40;57.50;;;;;;5091418;28;20633;-70
2022/05/21 05:35:38;;;;;;;1.85;1.38;;;20.40;57.50;;;;;;5090600;28;20209;-72
2022/05/21 05:38:06;;;;;;;1.88;1.73;;;20.40;57.50;;;;;;5094653;28;20625;-70
2022/05/21 05:40:33;;;;;;;1.88;1.30;;;20.40;57.50;;;;;;5094187;28;20185;-71
2022/05/21 05:43:00;;;;;;;1.83;1.50;;;20.40;57.50;;;;;;5093955;28;20263;-70
2022/05/21 05:45:25;;;;;;;1.75;1.27;;;20.40;57.60;;;;;;5095198;28;20181;-69
2022/05/21 05:47:51;;;;;;;1.52;1.30;;;20.40;57.50;;;;;;5094779;28;20181;-70
2022/05/21 05:50:16;;;;;;;1.70;1.60;;;20.40;57.50;;;;;;5094296;28;20169;-69
2022/05/21 05:52:42;;;;;;;2.10;1.23;;;20.40;57.60;;;;;;5094610;28;20189;-69
2022/05/21 05:55:08;;;;;;;4.38;1.60;;;20.40;57.50;;;;;;5094663;28;20181;-70
2022/05/21 05:57:33;;;;;;;1.52;1.17;;;20.40;57.50;;;;;;5093955;28;20696;-70
2022/05/21 05:59:59;;;;;;;3.30;1.90;;;20.50;57.50;;;;;;5094322;28;20170;-72
2022/05/21 06:05:13;;;;;;;1.95;1.40;;;20.50;57.50;;;;;;5094848;28;20247;-71
2022/05/21 06:07:46;;;;;;;3.15;1.30;;;20.50;57.60;;;;;;5094187;28;20305;-70
2022/05/21 06:10:13;;;;;;;2.75;1.40;;;20.50;57.60;;;;;;5093841;28;20649;-70
2022/05/21 06:12:39;;;;;;;1.63;1.45;;;20.50;57.50;;;;;;5094505;28;20253;-68
2022/05/21 06:15:05;;;;;;;1.85;1.17;;;20.50;57.60;;;;;;5094533;28;20589;-70
2022/05/21 06:17:30;;;;;;;2.15;1.50;;;20.50;57.50;;;;;;5093773;28;20174;-69
2022/05/21 06:19:55;;;;;;;2.28;1.30;;;20.50;57.50;;;;;;5094287;28;20176;-70
2022/05/21 06:22:21;;;;;;;2.17;1.42;;;20.50;57.50;;;;;;5094192;28;20240;-70
2022/05/21 06:24:47;;;;;;;3.08;1.63;;;20.50;57.50;;;;;;5093245;28;20169;-70
2022/05/21 06:27:12;;;;;;;1.75;1.40;;;20.50;57.50;;;;;;5094381;28;20174;-71
2022/05/21 06:29:38;;;;;;;2.97;1.27;;;20.60;57.50;;;;;;5094147;28;20200;-70
2022/05/21 06:32:07;;;;;;;2.35;1.50;;;20.60;57.50;;;;;;5093634;28;20279;-71
2022/05/21 06:34:33;;;;;;;2.33;1.42;;;20.50;57.40;;;;;;5094091;28;20245;-71
2022/05/21 06:37:06;;;;;;;2.55;1.75;;;20.50;57.40;;;;;;5092361;28;20174;-71
2022/05/21 06:39:32;;;;;;;2.63;1.98;;;20.60;57.50;;;;;;5093117;28;20272;-71
2022/05/21 06:41:58;;;;;;;1.92;1.33;;;20.50;57.40;;;;;;5093518;28;20614;-71
2022/05/21 06:44:24;;;;;;;6.88;1.60;;;20.50;57.40;;;;;;5093928;28;20208;-71
2022/05/21 06:46:49;;;;;;;1.60;1.27;;;20.60;57.50;;;;;;5092950;28;20209;-71
2022/05/21 06:49:15;;;;;;;3.17;1.40;;;20.60;57.30;;;;;;5093059;28;20182;-69
2022/05/21 06:51:40;;;;;;;2.70;1.80;;;20.60;57.30;;;;;;5092720;28;20178;-70
2022/05/21 06:54:06;;;;;;;2.20;1.48;;;20.60;57.30;;;;;;5093746;28;20185;-71
2022/05/21 06:56:31;;;;;;;2.85;1.10;;;20.60;57.30;;;;;;5093590;28;20169;-70
2022/05/21 06:58:57;;;;;;;1.73;1.30;;;20.60;57.30;;;;;;5092607;28;20306;-71
2022/05/21 07:01:22;;;;;;;2.10;1.52;;;20.60;57.30;;;;;;5093599;28;20312;-72
2022/05/21 07:03:48;;;;;;;1.70;1.52;;;20.70;57.20;;;;;;5093087;28;20225;-71
2022/05/21 07:08:57;;;;;;;2.65;1.73;;;20.70;57.20;;;;;;5092900;28;20281;-70
2022/05/21 07:11:23;;;;;;;1.95;1.60;;;20.60;57.20;;;;;;5093364;28;20170;-68
2022/05/21 07:13:48;;;;;;;2.45;1.50;;;20.60;57.40;;;;;;5092618;28;20275;-68
2022/05/21 07:16:14;;;;;;;1.95;1.10;;;20.60;57.30;;;;;;5093186;28;20184;-69
2022/05/21 07:18:39;;;;;;;2.80;1.50;;;20.60;57.30;;;;;;5092791;28;20555;-69
2022/05/21 07:21:05;;;;;;;3.60;1.60;;;20.70;57.30;;;;;;5092372;28;20226;-69
2022/05/21 07:23:31;;;;;;;1.77;1.60;;;20.70;57.20;;;;;;5092951;28;20561;-69
2022/05/21 07:25:56;;;;;;;2.03;1.50;;;20.80;57.10;;;;;;5092805;28;20636;-69
2022/05/21 07:28:22;;;;;;;1.88;1.30;;;20.80;57.10;;;;;;5092358;28;20243;-69
2022/05/21 07:30:47;;;;;;;1.52;1.42;;;20.80;57.00;;;;;;5092622;28;20193;-68
2022/05/21 07:33:16;;;;;;;1.75;1.52;;;20.80;57.00;;;;;;5091673;28;20174;-69
2022/05/21 07:35:42;;;;;;;3.30;1.70;;;20.80;57.00;;;;;;5091637;28;20186;-69
2022/05/21 07:38:08;;;;;;;1.73;1.35;;;20.80;57.10;;;;;;5092645;28;20285;-69
2022/05/21 07:40:34;;;;;;;2.67;1.48;;;20.80;57.10;;;;;;5092911;28;20182;-69
2022/05/21 07:42:59;;;;;;;2.25;1.60;;;20.80;57.00;;;;;;5091936;28;20584;-68
2022/05/21 07:45:25;;;;;;;4.18;1.98;;;20.90;56.90;;;;;;5091638;28;20212;-69
2022/05/21 07:47:50;;;;;;;1.45;1.30;;;20.90;56.90;;;;;;5091897;28;20181;-72
2022/05/21 07:50:16;;;;;;;2.50;1.33;;;20.80;56.90;;;;;;5092782;28;20173;-71
2022/05/21 07:52:42;;;;;;;3.58;1.70;;;20.90;56.90;;;;;;5092672;28;20174;-71
2022/05/21 07:55:09;;;;;;;4.72;1.70;;;20.90;56.90;;;;;;5092059;28;20243;-71
2022/05/21 07:57:34;;;;;;;5.65;1.63;;;20.90;56.90;;;;;;5092401;28;20205;-71
2022/05/21 08:00:00;;;;;;;7.15;2.00;;;21.00;57.00;;;;;;5092916;28;20209;-73
2022/05/21 08:02:26;;;;;;;4.30;1.35;;;20.90;57.00;;;;;;5091741;28;20220;-73
2022/05/21 08:04:51;;;;;;;3.10;1.20;;;20.90;57.10;;;;;;5092196;28;20201;-73
2022/05/21 08:07:17;;;;;;;4.70;1.60;;;20.90;57.10;;;;;;5092417;28;20648;-71
2022/05/21 08:09:42;;;;;;;4.65;2.03;;;20.90;57.00;;;;;;5091775;28;20184;-70
2022/05/21 08:12:08;;;;;;;3.65;1.42;;;20.90;56.90;;;;;;5092522;28;20256;-71
2022/05/21 08:14:34;;;;;;;3.55;2.05;;;21.00;56.90;;;;;;5092308;28;20243;-70
2022/05/21 08:17:00;;;;;;;6.18;1.80;;;20.90;56.90;;;;;;5091964;28;20617;-71
2022/05/21 08:19:26;;;;;;;7.10;2.17;;;21.00;56.90;;;;;;5092284;28;20582;-71
2022/05/21 08:21:51;;;;;;;3.40;1.55;;;21.00;56.90;;;;;;5091723;28;20185;-70
2022/05/21 08:27:02;;;;;;;3.88;2.03;;;20.90;57.00;;;;;;5092094;28;20264;-71
2022/05/21 08:29:29;;;;;;;3.90;1.60;;;21.00;57.00;;;;;;5092002;28;20624;-72
2022/05/21 08:31:55;;;;;;;3.83;1.50;;;20.90;57.00;;;;;;5090936;28;20638;-72
2022/05/21 08:34:21;;;;;;;3.28;1.70;;;20.80;57.00;;;;;;5092149;28;20193;-73
2022/05/21 08:36:47;;;;;;;3.60;1.52;;;20.80;57.00;;;;;;5091865;28;20169;-73
2022/05/21 08:39:14;;;;;;;3.75;1.85;;;20.80;56.90;;;;;;5091268;28;20178;-74
2022/05/21 08:41:45;;;;;;;5.60;2.10;;;20.90;56.60;;;;;;5091645;28;20211;-73
2022/05/21 08:44:39;;;;;;;5.57;1.75;;;20.90;56.50;;;;;;5091210;28;20285;-74
2022/05/21 08:47:21;;;;;;;4.93;2.25;;;20.90;56.40;;;;;;5092215;28;20196;-73
2022/05/21 08:50:02;;;;;;;3.42;1.73;;;20.80;56.40;;;;;;5091457;28;20584;-73
2022/05/21 08:52:28;;;;;;;3.13;1.30;;;20.80;56.40;;;;;;5091093;28;20177;-73
2022/05/21 08:54:54;;;;;;;6.18;2.00;;;20.80;56.50;;;;;;5091696;28;20219;-72
2022/05/21 08:57:56;;;;;;;5.85;2.30;;;20.80;56.60;;;;;;5090800;28;20174;-73
2022/05/21 09:00:27;;;;;;;4.15;1.95;;;20.70;56.60;;;;;;5028785;28;20183;-72
2022/05/21 09:02:54;;;;;;;5.05;2.10;;;20.70;56.60;;;;;;5080893;28;20221;-72
2022/05/21 09:05:20;;;;;;;4.35;1.95;;;20.70;57.20;;;;;;5089816;28;20174;-72
2022/05/21 09:08:09;;;;;;;6.15;1.80;;;20.80;56.60;;;;;;5091051;28;20241;-72
2022/05/21 09:10:40;;;;;;;3.80;1.83;;;20.80;56.70;;;;;;5091404;28;20628;-69
2022/05/21 09:13:14;;;;;;;5.15;1.90;;;20.80;56.60;;;;;;5094324;28;20296;-69
2022/05/21 09:18:24;;;;;;;3.17;1.73;;;20.80;56.60;;;;;;5094657;28;20253;-68
2022/05/21 09:20:59;;;;;;;5.20;1.80;;;20.90;56.70;;;;;;5094827;28;20257;-68
2022/05/21 09:23:44;;;;;;;6.35;2.15;;;20.90;56.70;;;;;;5095320;28;20571;-67
2022/05/21 09:26:09;;;;;;;3.17;1.85;;;20.90;56.60;;;;;;5094411;28;20484;-67
2022/05/21 09:28:38;;;;;;;4.15;1.85;;;21.00;56.50;;;;;;5094658;28;20239;-68
2022/05/21 09:31:05;;;;;;;5.93;2.10;;;21.10;56.50;;;;;;5095497;28;20256;-68
2022/05/21 09:33:33;;;;;;;3.80;1.67;;;21.10;56.40;;;;;;5094648;28;20641;-68
2022/05/21 09:35:59;;;;;;;8.05;1.80;;;21.20;56.30;;;;;;5095073;28;20170;-71
2022/05/21 09:38:30;;;;;;;3.35;1.75;;;21.20;56.40;;;;;;5095223;28;20185;-73
2022/05/21 09:41:10;;;;;;;4.22;1.90;;;21.10;56.40;;;;;;5094288;28;20178;-73
2022/05/21 09:46:22;;;;;;;2.35;1.52;;;21.10;56.40;;;;;;5093862;28;20188;-70
2022/05/21 09:48:48;;;;;;;3.95;1.60;;;21.20;56.30;;;;;;5093625;28;20186;-69
2022/05/21 09:51:30;;;;;;;5.80;1.67;;;21.20;56.30;;;;;;5094814;28;20177;-69
2022/05/21 09:53:57;;;;;;;5.63;2.13;;;21.20;56.30;;;;;;5094625;28;20227;-70
2022/05/21 09:56:27;;;;;;;6.07;1.83;;;21.30;56.30;;;;;;5092206;28;20177;-71
2022/05/21 09:59:11;;;;;;;6.32;2.13;;;21.30;56.80;;;;;;5094421;28;20242;-72
2022/05/21 10:01:50;;;;;;;4.32;1.88;;;21.30;56.20;;;;;;5093768;28;20165;-71
2022/05/21 10:04:39;;;;;;;5.68;1.55;;;21.30;56.20;;;;;;5074575;28;20197;-71
2022/05/21 10:13:03;;;;;;;5.75;2.15;;;21.30;56.20;;;;;;5073389;28;20205;-70
2022/05/21 10:15:29;;;;;;;4.85;1.95;;;21.30;56.10;;;;;;5072481;28;20198;-69
2022/05/21 10:18:12;;;;;;;4.18;1.83;;;21.30;56.10;;;;;;5072813;28;20205;-70
2022/05/21 10:20:39;;;;;;;3.45;1.80;;;21.30;56.00;;;;;;5090196;28;20178;-70
2022/05/21 10:23:15;;;;;;;4.55;1.70;;;21.30;55.90;;;;;;5091106;28;20210;-69
2022/05/21 10:26:01;;;;;;;3.78;1.70;;;21.30;55.90;;;;;;5092762;28;20177;-70
2022/05/21 10:28:39;;;;;;;3.85;1.83;;;21.30;56.00;;;;;;5094179;28;20180;-71
2022/05/21 10:31:42;;;;;;;4.45;1.90;;;21.30;56.00;;;;;;5092236;28;20580;-71
2022/05/21 10:34:32;;;;;;;3.88;1.50;;;21.30;55.90;;;;;;5092770;28;20620;-72
2022/05/21 10:37:21;;;;;;;3.28;1.40;;;21.40;55.80;;;;;;5093000;28;20181;-69
2022/05/21 10:39:55;;;;;;;4.63;1.63;;;21.50;55.80;;;;;;5093847;28;20222;-73
2022/05/21 10:42:33;;;;;;;5.82;2.15;;;21.50;55.70;;;;;;5092696;28;20351;-71
2022/05/21 10:45:19;;;;;;;5.00;1.77;;;21.50;55.70;;;;;;5075386;28;20226;-72
2022/05/21 10:48:22;;;;;;;3.97;1.60;;;21.50;55.80;;;;;;5077508;28;20182;-72
2022/05/21 10:50:54;;;;;;;3.83;1.83;;;21.60;55.80;;;;;;5092753;28;20169;-72
2022/05/21 10:53:43;;;;;;;5.82;1.80;;;21.50;55.80;;;;;;5093498;28;20170;-72
2022/05/21 10:56:11;;;;;;;4.13;1.60;;;21.60;55.90;;;;;;5092148;28;20593;-73
2022/05/21 10:58:51;;;;;;;3.90;1.60;;;21.60;55.90;;;;;;5092759;28;20227;-73
2022/05/21 11:01:29;;;;;;;4.03;1.80;;;21.60;55.90;;;;;;5093813;28;20162;-73
2022/05/21 11:04:07;;;;;;;3.55;1.60;;;21.60;55.90;;;;;;5093369;28;20206;-69
2022/05/21 11:07:05;;;;;;;7.50;2.20;;;21.60;56.00;;;;;;5092958;28;20173;-68
2022/05/21 11:09:54;;;;;;;3.85;1.85;;;21.60;56.00;;;;;;5093436;28;20253;-70
2022/05/21 11:12:30;;;;;;;5.50;1.80;;;21.60;56.10;;;;;;5091324;28;20174;-69
2022/05/21 11:15:08;;;;;;;3.45;1.45;;;21.60;56.10;;;;;;5091875;28;20181;-69
2022/05/21 11:17:54;;;;;;;11.18;2.55;;;21.60;56.10;;;;;;5093182;28;20585;-69
2022/05/21 11:20:30;;;;;;;4.32;1.80;;;21.60;56.10;;;;;;5090995;28;20621;-69
2022/05/21 11:23:21;;;;;;;3.97;1.90;;;21.60;56.10;;;;;;5091327;28;20216;-69
2022/05/21 11:25:50;;;;;;;4.05;1.60;;;21.60;56.10;;;;;;5090931;28;20181;-69
2022/05/21 11:28:37;;;;;;;4.70;1.60;;;21.60;56.10;;;;;;5091660;28;20524;-72
2022/05/21 11:39:43;;;;;;;5.57;1.67;;;21.40;57.00;;;;;;5091637;28;20176;-72
2022/05/21 11:42:14;;;;;;;3.05;1.80;;;21.40;56.40;;;;;;5091886;28;20507;-71
2022/05/21 11:44:56;;;;;;;4.25;1.85;;;21.50;56.30;;;;;;5091426;28;20181;-70
2022/05/21 11:47:24;;;;;;;4.47;1.42;;;21.60;56.10;;;;;;5090656;28;20248;-70
2022/05/21 11:49:59;;;;;;;5.35;1.67;;;21.60;55.90;;;;;;5092176;28;20551;-70
2022/05/21 11:52:31;;;;;;;4.50;1.70;;;21.70;55.80;;;;;;5091569;28;20201;-70
2022/05/21 11:54:57;;;;;;;3.65;1.80;;;21.70;55.70;;;;;;5091466;28;20178;-70
2022/05/21 11:57:38;;;;;;;2.90;1.67;;;21.80;55.70;;;;;;5092581;28;20177;-71
2022/05/21 12:00:17;;;;;;;4.07;1.77;;;21.70;55.70;;;;;;5091420;28;20206;-73
2022/05/21 12:02:56;;;;;;;2.55;1.60;;;21.70;55.70;;;;;;5090277;28;20223;-72
2022/05/21 12:05:46;;;;;;;2.40;1.33;;;21.70;55.80;;;;;;5092500;28;20252;-71
2022/05/21 12:08:27;;;;;;;4.35;2.17;;;21.70;55.80;;;;;;5091448;28;20225;-71
2022/05/21 12:11:23;;;;;;;4.18;1.65;;;21.70;55.80;;;;;;5092038;28;20628;-69
2022/05/21 12:14:09;;;;;;;3.63;1.70;;;21.70;55.80;;;;;;5092179;28;20208;-69
2022/05/21 12:16:34;;;;;;;3.72;1.52;;;21.70;55.80;;;;;;5091596;28;20186;-70
2022/05/21 12:19:01;;;;;;;2.35;1.58;;;21.80;55.60;;;;;;5092171;28;20208;-69
2022/05/21 12:23:58;;;;;;;3.35;1.55;;;21.70;55.70;;;;;;5091439;28;20216;-69
2022/05/21 12:26:26;;;;;;;4.30;1.67;;;21.70;55.70;;;;;;5092488;28;20181;-69
2022/05/21 12:29:12;;;;;;;3.30;1.73;;;21.80;55.90;;;;;;5090648;28;20477;-71
2022/05/21 12:31:51;;;;;;;1.38;1.27;;;21.70;55.90;;;;;;5090840;28;20177;-71
2022/05/21 12:34:21;;;;;;;4.03;1.98;;;21.80;55.80;;;;;;5092340;28;20199;-73
2022/05/21 12:37:18;;;;;;;2.45;1.60;;;21.70;55.80;;;;;;5091019;28;20648;-72
2022/05/21 12:39:58;;;;;;;2.95;1.60;;;21.80;55.80;;;;;;5090525;28;20304;-71
2022/05/21 12:42:28;;;;;;;3.33;1.50;;;21.90;55.60;;;;;;5091122;28;20215;-70
2022/05/21 12:44:54;;;;;;;2.95;1.60;;;21.80;55.70;;;;;;5089909;28;20990;-70
2022/05/21 12:47:32;;;;;;;3.40;1.70;;;21.80;55.80;;;;;;5094553;28;20170;-70
2022/05/21 12:49:58;;;;;;;2.05;1.60;;;21.80;55.80;;;;;;5096098;28;20174;-70
2022/05/21 12:52:47;;;;;;;4.15;1.75;;;21.80;55.80;;;;;;5094167;28;20570;-70
2022/05/21 12:55:45;;;;;;;3.17;1.50;;;21.80;55.80;;;;;;5094899;28;20178;-70
2022/05/21 12:58:17;;;;;;;3.58;1.50;;;21.80;55.90;;;;;;5050541;28;20178;-71
2022/05/21 13:00:51;;;;;;;7.50;2.15;;;21.90;55.90;;;;;;5095956;28;20255;-70
2022/05/21 13:03:18;;;;;;;2.72;1.75;;;21.90;55.70;;;;;;5096082;28;20220;-71
2022/05/21 13:05:57;;;;;;;5.35;2.10;;;21.90;55.80;;;;;;5095284;28;20188;-72
2022/05/21 13:08:23;;;;;;;4.07;1.65;;;21.90;55.80;;;;;;5094613;28;20236;-70
2022/05/21 13:11:17;;;;;;;2.47;1.42;;;22.00;55.80;;;;;;5094213;28;20173;-70
2022/05/21 13:13:42;;;;;;;4.15;1.60;;;22.10;55.50;;;;;;5092487;28;20196;-68
2022/05/21 13:16:13;;;;;;;4.40;2.05;;;22.20;55.30;;;;;;5094686;28;20178;-68
2022/05/21 13:18:57;;;;;;;5.72;1.85;;;22.20;55.50;;;;;;5093566;28;20177;-69
2022/05/21 13:21:42;;;;;;;4.93;1.65;;;22.10;55.60;;;;;;5095475;28;20169;-70
2022/05/21 13:24:12;;;;;;;6.03;1.65;;;22.00;55.80;;;;;;5095493;28;20212;-70
2022/05/21 13:26:41;;;;;;;4.90;1.58;;;22.00;55.80;;;;;;5093266;28;20190;-72
2022/05/21 13:29:21;;;;;;;4.85;1.55;;;22.10;55.70;;;;;;5094721;28;20177;-72
2022/05/21 13:31:48;;;;;;;3.70;1.73;;;22.10;55.60;;;;;;5095089;28;20196;-72
2022/05/21 13:34:20;;;;;;;1.95;1.17;;;22.10;55.60;;;;;;5094831;28;20185;-73
2022/05/21 13:36:49;;;;;;;4.57;1.48;;;22.20;55.40;;;;;;5095018;28;20182;-73
2022/05/21 13:39:21;;;;;;;3.75;1.80;;;22.20;55.40;;;;;;5094257;28;20177;-73
2022/05/21 13:41:47;;;;;;;6.32;1.83;;;22.20;55.40;;;;;;5093104;28;20180;-72